sensor_id;sensor_type;location;lat;lon;timestamp;P1;durP1;ratioP1;P2;durP2;ratioP2
63906;SDS011;50075;49.484;11.238;2023-12-20T00:01:08;432.35;;;190.93;;
63906;SDS011;50075;49.484;11.238;2023-12-20T00:03:33;413.63;;;191.52;;
63906;SDS011;50075;49.484;11.238;2023-12-20T00:05:58;420.75;;;192.55;;
63906;SDS011;50075;49.484;11.238;2023-12-20T00:08:24;460.23;;;195.00;;
63906;SDS011;50075;49.484;11.238;2023-12-20T00:10:49;441.30;;;194.88;;
63906;SDS011;50075;49.484;11.238;2023-12-20T00:13:14;454.27;;;195.68;;
63906;SDS011;50075;49.484;11.238;2023-12-20T00:15:40;441.90;;;192.68;;
63906;SDS011;50075;49.484;11.238;2023-12-20T00:18:05;438.10;;;193.60;;
63906;SDS011;50075;49.484;11.238;2023-12-20T00:20:30;401.80;;;190.85;;
63906;SDS011;50075;49.484;11.238;2023-12-20T00:22:56;426.13;;;194.30;;
63906;SDS011;50075;49.484;11.238;2023-12-20T00:25:23;495.27;;;198.38;;
63906;SDS011;50075;49.484;11.238;2023-12-20T00:27:49;421.45;;;196.30;;
63906;SDS011;50075;49.484;11.238;2023-12-20T00:30:14;461.05;;;198.18;;
63906;SDS011;50075;49.484;11.238;2023-12-20T00:32:39;438.13;;;197.90;;
63906;SDS011;50075;49.484;11.238;2023-12-20T00:35:11;435.47;;;196.43;;
63906;SDS011;50075;49.484;11.238;2023-12-20T00:37:37;429.50;;;197.20;;
63906;SDS011;50075;49.484;11.238;2023-12-20T00:40:02;436.15;;;198.07;;
63906;SDS011;50075;49.484;11.238;2023-12-20T00:42:27;440.92;;;199.43;;
63906;SDS011;50075;49.484;11.238;2023-12-20T00:44:53;443.67;;;199.77;;
63906;SDS011;50075;49.484;11.238;2023-12-20T00:54:28;473.55;;;204.88;;
63906;SDS011;50075;49.484;11.238;2023-12-20T00:56:55;425.58;;;201.20;;
63906;SDS011;50075;49.484;11.238;2023-12-20T00:59:21;500.92;;;201.98;;
63906;SDS011;50075;49.484;11.238;2023-12-20T01:01:46;408.63;;;197.57;;
63906;SDS011;50075;49.484;11.238;2023-12-20T01:04:11;456.95;;;200.57;;
63906;SDS011;50075;49.484;11.238;2023-12-20T01:06:37;452.83;;;202.13;;
63906;SDS011;50075;49.484;11.238;2023-12-20T01:09:02;444.60;;;201.05;;
63906;SDS011;50075;49.484;11.238;2023-12-20T01:11:27;451.98;;;202.50;;
63906;SDS011;50075;49.484;11.238;2023-12-20T01:13:53;448.00;;;200.32;;
63906;SDS011;50075;49.484;11.238;2023-12-20T01:16:18;514.30;;;204.55;;
63906;SDS011;50075;49.484;11.238;2023-12-20T01:18:43;409.83;;;199.35;;
63906;SDS011;50075;49.484;11.238;2023-12-20T01:21:09;456.63;;;200.30;;
63906;SDS011;50075;49.484;11.238;2023-12-20T01:23:34;453.42;;;198.10;;
63906;SDS011;50075;49.484;11.238;2023-12-20T01:25:59;435.95;;;194.52;;
63906;SDS011;50075;49.484;11.238;2023-12-20T01:28:25;460.45;;;198.18;;
63906;SDS011;50075;49.484;11.238;2023-12-20T01:30:50;443.55;;;193.65;;
63906;SDS011;50075;49.484;11.238;2023-12-20T01:33:16;468.92;;;190.10;;
63906;SDS011;50075;49.484;11.238;2023-12-20T01:35:41;469.35;;;198.20;;
63906;SDS011;50075;49.484;11.238;2023-12-20T01:38:06;451.75;;;202.18;;
63906;SDS011;50075;49.484;11.238;2023-12-20T01:40:32;442.88;;;204.57;;
63906;SDS011;50075;49.484;11.238;2023-12-20T01:43:15;430.48;;;191.93;;
63906;SDS011;50075;49.484;11.238;2023-12-20T01:45:40;454.95;;;198.35;;
63906;SDS011;50075;49.484;11.238;2023-12-20T01:48:06;430.60;;;199.25;;
63906;SDS011;50075;49.484;11.238;2023-12-20T01:50:33;433.58;;;199.23;;
63906;SDS011;50075;49.484;11.238;2023-12-20T01:53:01;432.67;;;198.57;;
63906;SDS011;50075;49.484;11.238;2023-12-20T01:55:29;514.28;;;203.30;;
63906;SDS011;50075;49.484;11.238;2023-12-20T01:57:56;419.15;;;196.35;;
63906;SDS011;50075;49.484;11.238;2023-12-20T02:00:23;489.73;;;199.32;;
63906;SDS011;50075;49.484;11.238;2023-12-20T02:02:51;476.58;;;202.98;;
63906;SDS011;50075;49.484;11.238;2023-12-20T02:05:18;464.40;;;203.40;;
63906;SDS011;50075;49.484;11.238;2023-12-20T02:07:43;452.05;;;203.13;;
63906;SDS011;50075;49.484;11.238;2023-12-20T02:10:09;459.65;;;196.15;;
63906;SDS011;50075;49.484;11.238;2023-12-20T02:12:34;444.83;;;199.43;;
63906;SDS011;50075;49.484;11.238;2023-12-20T02:15:00;410.45;;;201.18;;
63906;SDS011;50075;49.484;11.238;2023-12-20T02:17:26;515.95;;;199.77;;
63906;SDS011;50075;49.484;11.238;2023-12-20T02:19:52;422.02;;;195.32;;
63906;SDS011;50075;49.484;11.238;2023-12-20T02:22:18;436.88;;;189.63;;
63906;SDS011;50075;49.484;11.238;2023-12-20T02:24:43;466.85;;;190.48;;
63906;SDS011;50075;49.484;11.238;2023-12-20T02:27:08;402.15;;;196.80;;
63906;SDS011;50075;49.484;11.238;2023-12-20T02:29:34;435.40;;;203.95;;
63906;SDS011;50075;49.484;11.238;2023-12-20T02:32:00;439.63;;;204.10;;
63906;SDS011;50075;49.484;11.238;2023-12-20T02:34:26;505.40;;;208.88;;
63906;SDS011;50075;49.484;11.238;2023-12-20T02:36:51;419.45;;;187.43;;
63906;SDS011;50075;49.484;11.238;2023-12-20T02:39:17;477.75;;;195.65;;
63906;SDS011;50075;49.484;11.238;2023-12-20T02:41:44;427.67;;;196.52;;
63906;SDS011;50075;49.484;11.238;2023-12-20T02:44:09;433.52;;;196.75;;
63906;SDS011;50075;49.484;11.238;2023-12-20T02:46:34;434.08;;;197.65;;
63906;SDS011;50075;49.484;11.238;2023-12-20T02:49:00;398.58;;;182.77;;
63906;SDS011;50075;49.484;11.238;2023-12-20T02:51:25;482.23;;;191.73;;
63906;SDS011;50075;49.484;11.238;2023-12-20T02:53:51;446.80;;;193.98;;
63906;SDS011;50075;49.484;11.238;2023-12-20T02:56:16;440.58;;;193.95;;
63906;SDS011;50075;49.484;11.238;2023-12-20T02:58:41;428.95;;;195.20;;
63906;SDS011;50075;49.484;11.238;2023-12-20T03:01:06;446.80;;;196.73;;
63906;SDS011;50075;49.484;11.238;2023-12-20T03:03:32;484.13;;;201.15;;
63906;SDS011;50075;49.484;11.238;2023-12-20T03:05:57;435.10;;;200.65;;
63906;SDS011;50075;49.484;11.238;2023-12-20T03:08:23;518.45;;;203.45;;
63906;SDS011;50075;49.484;11.238;2023-12-20T03:10:48;409.20;;;197.57;;
63906;SDS011;50075;49.484;11.238;2023-12-20T03:13:14;471.65;;;203.23;;
63906;SDS011;50075;49.484;11.238;2023-12-20T03:15:39;463.42;;;202.75;;
63906;SDS011;50075;49.484;11.238;2023-12-20T03:18:04;443.50;;;204.55;;
63906;SDS011;50075;49.484;11.238;2023-12-20T03:20:30;453.38;;;203.00;;
63906;SDS011;50075;49.484;11.238;2023-12-20T03:22:59;451.30;;;204.65;;
63906;SDS011;50075;49.484;11.238;2023-12-20T03:25:24;513.30;;;207.63;;
63906;SDS011;50075;49.484;11.238;2023-12-20T03:27:49;453.90;;;201.32;;
63906;SDS011;50075;49.484;11.238;2023-12-20T03:30:15;463.27;;;208.15;;
63906;SDS011;50075;49.484;11.238;2023-12-20T03:32:40;444.27;;;206.75;;
63906;SDS011;50075;49.484;11.238;2023-12-20T03:35:05;458.95;;;206.75;;
63906;SDS011;50075;49.484;11.238;2023-12-20T03:37:31;516.88;;;209.27;;
63906;SDS011;50075;49.484;11.238;2023-12-20T03:39:56;442.67;;;208.00;;
63906;SDS011;50075;49.484;11.238;2023-12-20T03:42:21;503.75;;;212.77;;
63906;SDS011;50075;49.484;11.238;2023-12-20T03:44:47;463.90;;;210.88;;
63906;SDS011;50075;49.484;11.238;2023-12-20T03:47:12;437.98;;;201.20;;
63906;SDS011;50075;49.484;11.238;2023-12-20T03:49:37;464.60;;;197.23;;
63906;SDS011;50075;49.484;11.238;2023-12-20T03:52:03;454.65;;;200.63;;
63906;SDS011;50075;49.484;11.238;2023-12-20T03:54:29;506.67;;;204.27;;
63906;SDS011;50075;49.484;11.238;2023-12-20T03:56:54;399.48;;;195.93;;
63906;SDS011;50075;49.484;11.238;2023-12-20T03:59:20;474.50;;;199.27;;
63906;SDS011;50075;49.484;11.238;2023-12-20T04:01:45;437.75;;;200.07;;
63906;SDS011;50075;49.484;11.238;2023-12-20T04:04:11;437.38;;;200.45;;
63906;SDS011;50075;49.484;11.238;2023-12-20T04:06:36;451.25;;;203.70;;
63906;SDS011;50075;49.484;11.238;2023-12-20T04:09:02;430.35;;;199.90;;
63906;SDS011;50075;49.484;11.238;2023-12-20T04:11:28;501.75;;;207.25;;
63906;SDS011;50075;49.484;11.238;2023-12-20T04:13:53;441.30;;;206.13;;
63906;SDS011;50075;49.484;11.238;2023-12-20T04:16:19;478.50;;;206.77;;
63906;SDS011;50075;49.484;11.238;2023-12-20T04:18:44;416.42;;;203.48;;
63906;SDS011;50075;49.484;11.238;2023-12-20T04:21:10;459.08;;;205.20;;
63906;SDS011;50075;49.484;11.238;2023-12-20T04:23:35;475.83;;;206.38;;
63906;SDS011;50075;49.484;11.238;2023-12-20T04:26:00;414.77;;;205.25;;
63906;SDS011;50075;49.484;11.238;2023-12-20T04:28:26;504.65;;;212.10;;
63906;SDS011;50075;49.484;11.238;2023-12-20T04:30:51;434.55;;;209.40;;
63906;SDS011;50075;49.484;11.238;2023-12-20T04:33:16;441.00;;;210.55;;
63906;SDS011;50075;49.484;11.238;2023-12-20T04:35:42;443.55;;;210.05;;
63906;SDS011;50075;49.484;11.238;2023-12-20T04:38:08;449.95;;;211.88;;
63906;SDS011;50075;49.484;11.238;2023-12-20T04:40:34;483.20;;;198.55;;
63906;SDS011;50075;49.484;11.238;2023-12-20T04:42:59;444.00;;;197.85;;
63906;SDS011;50075;49.484;11.238;2023-12-20T04:45:24;446.20;;;199.75;;
63906;SDS011;50075;49.484;11.238;2023-12-20T04:47:50;420.55;;;200.27;;
63906;SDS011;50075;49.484;11.238;2023-12-20T04:50:16;484.95;;;207.48;;
63906;SDS011;50075;49.484;11.238;2023-12-20T04:52:41;446.23;;;207.77;;
63906;SDS011;50075;49.484;11.238;2023-12-20T04:55:07;418.88;;;204.68;;
63906;SDS011;50075;49.484;11.238;2023-12-20T04:57:33;538.10;;;208.93;;
63906;SDS011;50075;49.484;11.238;2023-12-20T04:59:59;401.30;;;205.68;;
63906;SDS011;50075;49.484;11.238;2023-12-20T05:02:25;450.13;;;209.82;;
63906;SDS011;50075;49.484;11.238;2023-12-20T05:04:50;465.88;;;210.63;;
63906;SDS011;50075;49.484;11.238;2023-12-20T05:07:16;433.83;;;212.02;;
63906;SDS011;50075;49.484;11.238;2023-12-20T05:09:41;461.10;;;207.70;;
63906;SDS011;50075;49.484;11.238;2023-12-20T05:12:06;463.40;;;206.65;;
63906;SDS011;50075;49.484;11.238;2023-12-20T05:14:32;476.75;;;208.45;;
63906;SDS011;50075;49.484;11.238;2023-12-20T05:16:57;412.27;;;200.90;;
63906;SDS011;50075;49.484;11.238;2023-12-20T05:19:23;451.75;;;206.55;;
63906;SDS011;50075;49.484;11.238;2023-12-20T05:21:49;420.33;;;199.77;;
63906;SDS011;50075;49.484;11.238;2023-12-20T05:24:14;446.58;;;206.02;;
63906;SDS011;50075;49.484;11.238;2023-12-20T05:26:39;521.65;;;212.65;;
63906;SDS011;50075;49.484;11.238;2023-12-20T05:29:05;457.20;;;200.35;;
63906;SDS011;50075;49.484;11.238;2023-12-20T05:31:31;494.08;;;211.32;;
63906;SDS011;50075;49.484;11.238;2023-12-20T05:33:56;474.23;;;210.43;;
63906;SDS011;50075;49.484;11.238;2023-12-20T05:36:21;497.67;;;212.25;;
63906;SDS011;50075;49.484;11.238;2023-12-20T05:38:47;446.30;;;212.85;;
63906;SDS011;50075;49.484;11.238;2023-12-20T05:41:12;487.73;;;214.60;;
63906;SDS011;50075;49.484;11.238;2023-12-20T05:43:38;492.60;;;216.48;;
63906;SDS011;50075;49.484;11.238;2023-12-20T05:46:04;401.98;;;205.55;;
63906;SDS011;50075;49.484;11.238;2023-12-20T05:48:29;429.77;;;190.07;;
63906;SDS011;50075;49.484;11.238;2023-12-20T05:50:54;374.90;;;192.18;;
63906;SDS011;50075;49.484;11.238;2023-12-20T05:53:20;426.88;;;197.15;;
63906;SDS011;50075;49.484;11.238;2023-12-20T05:55:45;478.60;;;204.52;;
63906;SDS011;50075;49.484;11.238;2023-12-20T05:58:10;406.90;;;200.00;;
63906;SDS011;50075;49.484;11.238;2023-12-20T06:00:36;456.55;;;206.38;;
63906;SDS011;50075;49.484;11.238;2023-12-20T06:03:01;457.45;;;201.45;;
63906;SDS011;50075;49.484;11.238;2023-12-20T06:05:27;450.83;;;203.05;;
63906;SDS011;50075;49.484;11.238;2023-12-20T06:07:52;401.45;;;204.23;;
63906;SDS011;50075;49.484;11.238;2023-12-20T06:10:17;496.83;;;209.85;;
63906;SDS011;50075;49.484;11.238;2023-12-20T06:12:43;519.97;;;209.63;;
63906;SDS011;50075;49.484;11.238;2023-12-20T06:15:08;434.08;;;207.68;;
63906;SDS011;50075;49.484;11.238;2023-12-20T06:17:34;537.22;;;213.80;;
63906;SDS011;50075;49.484;11.238;2023-12-20T06:20:00;403.00;;;206.75;;
63906;SDS011;50075;49.484;11.238;2023-12-20T06:22:25;451.83;;;209.35;;
63906;SDS011;50075;49.484;11.238;2023-12-20T06:24:51;460.75;;;211.38;;
63906;SDS011;50075;49.484;11.238;2023-12-20T06:27:16;447.75;;;209.95;;
63906;SDS011;50075;49.484;11.238;2023-12-20T06:29:42;515.35;;;214.85;;
63906;SDS011;50075;49.484;11.238;2023-12-20T06:32:09;469.20;;;214.18;;
63906;SDS011;50075;49.484;11.238;2023-12-20T06:34:34;475.67;;;213.60;;
63906;SDS011;50075;49.484;11.238;2023-12-20T06:37:00;420.02;;;209.02;;
63906;SDS011;50075;49.484;11.238;2023-12-20T06:39:25;486.60;;;211.52;;
63906;SDS011;50075;49.484;11.238;2023-12-20T06:41:51;402.52;;;202.32;;
63906;SDS011;50075;49.484;11.238;2023-12-20T06:44:16;437.75;;;207.70;;
63906;SDS011;50075;49.484;11.238;2023-12-20T06:46:42;559.72;;;200.75;;
63906;SDS011;50075;49.484;11.238;2023-12-20T06:49:07;453.90;;;201.30;;
63906;SDS011;50075;49.484;11.238;2023-12-20T06:51:32;478.70;;;192.45;;
63906;SDS011;50075;49.484;11.238;2023-12-20T06:53:58;430.00;;;194.73;;
63906;SDS011;50075;49.484;11.238;2023-12-20T06:56:25;436.50;;;194.00;;
63906;SDS011;50075;49.484;11.238;2023-12-20T06:58:50;385.67;;;196.75;;
63906;SDS011;50075;49.484;11.238;2023-12-20T07:01:15;464.35;;;197.73;;
63906;SDS011;50075;49.484;11.238;2023-12-20T07:03:41;459.77;;;202.25;;
63906;SDS011;50075;49.484;11.238;2023-12-20T07:06:07;422.67;;;199.50;;
63906;SDS011;50075;49.484;11.238;2023-12-20T07:08:33;487.20;;;201.85;;
63906;SDS011;50075;49.484;11.238;2023-12-20T07:10:58;390.98;;;189.07;;
63906;SDS011;50075;49.484;11.238;2023-12-20T07:13:23;417.80;;;193.65;;
63906;SDS011;50075;49.484;11.238;2023-12-20T07:15:49;419.60;;;194.13;;
63906;SDS011;50075;49.484;11.238;2023-12-20T07:18:15;396.85;;;190.55;;
63906;SDS011;50075;49.484;11.238;2023-12-20T07:20:42;473.17;;;198.23;;
63906;SDS011;50075;49.484;11.238;2023-12-20T07:23:08;441.63;;;200.73;;
63906;SDS011;50075;49.484;11.238;2023-12-20T07:25:33;507.05;;;204.20;;
63906;SDS011;50075;49.484;11.238;2023-12-20T07:27:59;397.25;;;187.98;;
63906;SDS011;50075;49.484;11.238;2023-12-20T07:30:24;426.05;;;184.00;;
63906;SDS011;50075;49.484;11.238;2023-12-20T07:32:49;383.95;;;181.85;;
63906;SDS011;50075;49.484;11.238;2023-12-20T07:35:15;422.77;;;179.40;;
63906;SDS011;50075;49.484;11.238;2023-12-20T07:37:41;527.15;;;187.75;;
63906;SDS011;50075;49.484;11.238;2023-12-20T07:40:06;417.70;;;191.35;;
63906;SDS011;50075;49.484;11.238;2023-12-20T07:42:32;455.92;;;193.10;;
63906;SDS011;50075;49.484;11.238;2023-12-20T07:44:58;438.33;;;193.93;;
63906;SDS011;50075;49.484;11.238;2023-12-20T07:47:23;422.70;;;194.00;;
63906;SDS011;50075;49.484;11.238;2023-12-20T07:49:50;461.02;;;195.90;;
63906;SDS011;50075;49.484;11.238;2023-12-20T07:52:16;406.73;;;195.27;;
63906;SDS011;50075;49.484;11.238;2023-12-20T07:54:43;509.50;;;204.57;;
63906;SDS011;50075;49.484;11.238;2023-12-20T07:57:10;438.13;;;197.00;;
63906;SDS011;50075;49.484;11.238;2023-12-20T07:59:35;549.83;;;203.52;;
63906;SDS011;50075;49.484;11.238;2023-12-20T08:02:01;387.63;;;196.70;;
63906;SDS011;50075;49.484;11.238;2023-12-20T08:04:26;421.08;;;199.68;;
63906;SDS011;50075;49.484;11.238;2023-12-20T08:06:52;371.02;;;197.35;;
63906;SDS011;50075;49.484;11.238;2023-12-20T08:09:17;398.88;;;198.07;;
63906;SDS011;50075;49.484;11.238;2023-12-20T08:11:45;527.28;;;203.18;;
63906;SDS011;50075;49.484;11.238;2023-12-20T08:14:10;385.75;;;201.75;;
63906;SDS011;50075;49.484;11.238;2023-12-20T08:16:36;445.60;;;204.38;;
63906;SDS011;50075;49.484;11.238;2023-12-20T08:19:01;435.90;;;202.90;;
63906;SDS011;50075;49.484;11.238;2023-12-20T08:21:26;348.45;;;177.25;;
63906;SDS011;50075;49.484;11.238;2023-12-20T08:23:52;369.98;;;180.40;;
63906;SDS011;50075;49.484;11.238;2023-12-20T08:26:21;411.73;;;187.18;;
63906;SDS011;50075;49.484;11.238;2023-12-20T08:28:49;366.70;;;187.60;;
63906;SDS011;50075;49.484;11.238;2023-12-20T08:31:15;359.08;;;190.65;;
63906;SDS011;50075;49.484;11.238;2023-12-20T08:33:45;469.08;;;198.70;;
63906;SDS011;50075;49.484;11.238;2023-12-20T08:36:12;326.75;;;191.75;;
63906;SDS011;50075;49.484;11.238;2023-12-20T08:38:37;439.80;;;195.88;;
63906;SDS011;50075;49.484;11.238;2023-12-20T08:41:03;399.42;;;196.23;;
63906;SDS011;50075;49.484;11.238;2023-12-20T08:43:30;369.05;;;195.23;;
63906;SDS011;50075;49.484;11.238;2023-12-20T08:45:59;393.00;;;194.52;;
63906;SDS011;50075;49.484;11.238;2023-12-20T08:48:24;394.27;;;195.43;;
63906;SDS011;50075;49.484;11.238;2023-12-20T08:50:50;496.88;;;199.57;;
63906;SDS011;50075;49.484;11.238;2023-12-20T08:53:17;425.10;;;199.15;;
63906;SDS011;50075;49.484;11.238;2023-12-20T08:55:43;479.25;;;185.43;;
63906;SDS011;50075;49.484;11.238;2023-12-20T08:58:08;378.15;;;186.25;;
63906;SDS011;50075;49.484;11.238;2023-12-20T09:00:34;399.70;;;187.30;;
63906;SDS011;50075;49.484;11.238;2023-12-20T09:02:59;348.92;;;175.45;;
63906;SDS011;50075;49.484;11.238;2023-12-20T09:05:26;364.23;;;172.05;;
63906;SDS011;50075;49.484;11.238;2023-12-20T09:07:51;470.63;;;186.15;;
63906;SDS011;50075;49.484;11.238;2023-12-20T09:10:17;372.55;;;187.32;;
63906;SDS011;50075;49.484;11.238;2023-12-20T09:12:47;501.75;;;196.02;;
63906;SDS011;50075;49.484;11.238;2023-12-20T09:15:15;442.88;;;200.82;;
63906;SDS011;50075;49.484;11.238;2023-12-20T09:17:41;482.52;;;197.55;;
63906;SDS011;50075;49.484;11.238;2023-12-20T09:20:07;385.23;;;189.98;;
63906;SDS011;50075;49.484;11.238;2023-12-20T09:22:33;421.13;;;193.38;;
63906;SDS011;50075;49.484;11.238;2023-12-20T09:24:59;384.58;;;191.20;;
63906;SDS011;50075;49.484;11.238;2023-12-20T09:27:25;394.15;;;193.00;;
63906;SDS011;50075;49.484;11.238;2023-12-20T09:29:50;554.20;;;203.20;;
63906;SDS011;50075;49.484;11.238;2023-12-20T09:32:15;399.48;;;189.60;;
63906;SDS011;50075;49.484;11.238;2023-12-20T09:34:41;508.45;;;196.20;;
63906;SDS011;50075;49.484;11.238;2023-12-20T09:37:06;396.83;;;192.23;;
63906;SDS011;50075;49.484;11.238;2023-12-20T09:39:32;362.58;;;190.88;;
63906;SDS011;50075;49.484;11.238;2023-12-20T09:42:02;379.10;;;194.38;;
63906;SDS011;50075;49.484;11.238;2023-12-20T09:44:28;424.27;;;199.07;;
63906;SDS011;50075;49.484;11.238;2023-12-20T09:46:54;492.25;;;199.95;;
63906;SDS011;50075;49.484;11.238;2023-12-20T09:49:20;413.42;;;197.18;;
63906;SDS011;50075;49.484;11.238;2023-12-20T09:51:47;522.70;;;205.10;;
63906;SDS011;50075;49.484;11.238;2023-12-20T09:54:19;409.40;;;199.15;;
63906;SDS011;50075;49.484;11.238;2023-12-20T09:56:46;555.15;;;205.27;;
63906;SDS011;50075;49.484;11.238;2023-12-20T09:59:12;432.55;;;199.18;;
63906;SDS011;50075;49.484;11.238;2023-12-20T10:01:38;437.73;;;202.25;;
63906;SDS011;50075;49.484;11.238;2023-12-20T10:04:06;407.85;;;203.20;;
63906;SDS011;50075;49.484;11.238;2023-12-20T10:06:34;380.85;;;201.75;;
63906;SDS011;50075;49.484;11.238;2023-12-20T10:09:01;414.77;;;207.50;;
63906;SDS011;50075;49.484;11.238;2023-12-20T10:11:26;421.38;;;206.40;;
63906;SDS011;50075;49.484;11.238;2023-12-20T10:13:53;500.70;;;211.38;;
63906;SDS011;50075;49.484;11.238;2023-12-20T10:16:27;426.23;;;206.65;;
63906;SDS011;50075;49.484;11.238;2023-12-20T10:18:53;480.98;;;210.43;;
63906;SDS011;50075;49.484;11.238;2023-12-20T10:21:19;433.13;;;207.32;;
63906;SDS011;50075;49.484;11.238;2023-12-20T10:23:45;523.58;;;210.75;;
63906;SDS011;50075;49.484;11.238;2023-12-20T10:26:10;387.80;;;205.77;;
63906;SDS011;50075;49.484;11.238;2023-12-20T10:28:45;567.35;;;305.60;;
63906;SDS011;50075;49.484;11.238;2023-12-20T10:31:10;458.75;;;208.85;;
63906;SDS011;50075;49.484;11.238;2023-12-20T10:33:36;382.83;;;169.23;;
63906;SDS011;50075;49.484;11.238;2023-12-20T10:36:01;344.70;;;162.02;;
63906;SDS011;50075;49.484;11.238;2023-12-20T10:38:27;377.35;;;161.48;;
63906;SDS011;50075;49.484;11.238;2023-12-20T10:40:56;450.00;;;175.30;;
63906;SDS011;50075;49.484;11.238;2023-12-20T10:43:26;422.45;;;178.98;;
63906;SDS011;50075;49.484;11.238;2023-12-20T10:45:53;426.45;;;177.77;;
63906;SDS011;50075;49.484;11.238;2023-12-20T10:48:19;422.50;;;170.30;;
63906;SDS011;50075;49.484;11.238;2023-12-20T10:50:47;442.48;;;165.10;;
63906;SDS011;50075;49.484;11.238;2023-12-20T10:53:12;392.00;;;160.45;;
63906;SDS011;50075;49.484;11.238;2023-12-20T10:55:39;403.20;;;170.88;;
63906;SDS011;50075;49.484;11.238;2023-12-20T10:58:08;419.75;;;173.32;;
63906;SDS011;50075;49.484;11.238;2023-12-20T11:00:39;392.83;;;172.43;;
63906;SDS011;50075;49.484;11.238;2023-12-20T11:03:10;423.35;;;176.63;;
63906;SDS011;50075;49.484;11.238;2023-12-20T11:05:47;412.23;;;174.68;;
63906;SDS011;50075;49.484;11.238;2023-12-20T11:09:01;446.75;;;177.57;;
63906;SDS011;50075;49.484;11.238;2023-12-20T11:11:34;427.65;;;177.55;;
63906;SDS011;50075;49.484;11.238;2023-12-20T11:14:13;390.10;;;175.85;;
63906;SDS011;50075;49.484;11.238;2023-12-20T11:16:44;471.85;;;182.60;;
63906;SDS011;50075;49.484;11.238;2023-12-20T11:19:11;472.73;;;182.63;;
63906;SDS011;50075;49.484;11.238;2023-12-20T11:21:39;403.98;;;176.38;;
63906;SDS011;50075;49.484;11.238;2023-12-20T11:24:05;363.75;;;160.45;;
63906;SDS011;50075;49.484;11.238;2023-12-20T11:26:30;393.85;;;174.70;;
63906;SDS011;50075;49.484;11.238;2023-12-20T11:29:29;484.95;;;176.65;;
63906;SDS011;50075;49.484;11.238;2023-12-20T11:32:01;387.58;;;175.23;;
63906;SDS011;50075;49.484;11.238;2023-12-20T11:34:56;549.50;;;184.57;;
63906;SDS011;50075;49.484;11.238;2023-12-20T11:37:33;429.33;;;169.73;;
63906;SDS011;50075;49.484;11.238;2023-12-20T11:40:02;402.55;;;161.55;;
63906;SDS011;50075;49.484;11.238;2023-12-20T11:42:32;433.67;;;161.73;;
63906;SDS011;50075;49.484;11.238;2023-12-20T11:44:58;453.85;;;169.32;;
63906;SDS011;50075;49.484;11.238;2023-12-20T11:47:24;416.90;;;169.10;;
63906;SDS011;50075;49.484;11.238;2023-12-20T11:49:50;506.60;;;174.35;;
63906;SDS011;50075;49.484;11.238;2023-12-20T11:52:16;389.00;;;161.27;;
63906;SDS011;50075;49.484;11.238;2023-12-20T11:54:42;375.63;;;162.55;;
63906;SDS011;50075;49.484;11.238;2023-12-20T11:57:07;424.23;;;166.35;;
63906;SDS011;50075;49.484;11.238;2023-12-20T11:59:32;418.42;;;167.13;;
63906;SDS011;50075;49.484;11.238;2023-12-20T12:01:58;429.58;;;171.07;;
63906;SDS011;50075;49.484;11.238;2023-12-20T12:04:26;398.38;;;173.70;;
63906;SDS011;50075;49.484;11.238;2023-12-20T12:06:52;393.60;;;170.02;;
63906;SDS011;50075;49.484;11.238;2023-12-20T12:09:17;372.80;;;169.57;;
63906;SDS011;50075;49.484;11.238;2023-12-20T12:11:42;392.67;;;169.40;;
63906;SDS011;50075;49.484;11.238;2023-12-20T12:14:08;375.67;;;170.95;;
63906;SDS011;50075;49.484;11.238;2023-12-20T12:16:34;366.30;;;169.70;;
63906;SDS011;50075;49.484;11.238;2023-12-20T12:18:59;522.45;;;161.90;;
63906;SDS011;50075;49.484;11.238;2023-12-20T12:21:25;331.52;;;148.30;;
63906;SDS011;50075;49.484;11.238;2023-12-20T12:23:51;462.90;;;161.57;;
63906;SDS011;50075;49.484;11.238;2023-12-20T12:26:16;400.52;;;160.98;;
63906;SDS011;50075;49.484;11.238;2023-12-20T12:28:42;362.00;;;161.65;;
63906;SDS011;50075;49.484;11.238;2023-12-20T12:31:08;359.15;;;160.60;;
63906;SDS011;50075;49.484;11.238;2023-12-20T12:33:38;412.13;;;164.02;;
63906;SDS011;50075;49.484;11.238;2023-12-20T12:36:03;336.73;;;161.25;;
63906;SDS011;50075;49.484;11.238;2023-12-20T12:38:32;352.98;;;163.02;;
63906;SDS011;50075;49.484;11.238;2023-12-20T12:40:57;453.40;;;165.27;;
63906;SDS011;50075;49.484;11.238;2023-12-20T12:43:23;378.83;;;165.85;;
63906;SDS011;50075;49.484;11.238;2023-12-20T12:45:49;459.02;;;168.95;;
63906;SDS011;50075;49.484;11.238;2023-12-20T12:48:14;453.90;;;171.77;;
63906;SDS011;50075;49.484;11.238;2023-12-20T12:50:40;428.88;;;176.48;;
63906;SDS011;50075;49.484;11.238;2023-12-20T12:53:05;337.38;;;167.52;;
63906;SDS011;50075;49.484;11.238;2023-12-20T12:55:31;411.35;;;175.30;;
63906;SDS011;50075;49.484;11.238;2023-12-20T12:57:56;478.20;;;175.95;;
63906;SDS011;50075;49.484;11.238;2023-12-20T13:00:21;372.50;;;176.07;;
63906;SDS011;50075;49.484;11.238;2023-12-20T13:02:47;433.90;;;190.07;;
63906;SDS011;50075;49.484;11.238;2023-12-20T13:05:13;357.90;;;175.38;;
63906;SDS011;50075;49.484;11.238;2023-12-20T13:07:38;366.60;;;177.35;;
63906;SDS011;50075;49.484;11.238;2023-12-20T13:10:04;591.05;;;189.98;;
63906;SDS011;50075;49.484;11.238;2023-12-20T13:12:30;417.35;;;180.23;;
63906;SDS011;50075;49.484;11.238;2023-12-20T13:14:57;448.88;;;167.25;;
63906;SDS011;50075;49.484;11.238;2023-12-20T13:17:22;393.55;;;158.23;;
63906;SDS011;50075;49.484;11.238;2023-12-20T13:19:47;398.05;;;159.35;;
63906;SDS011;50075;49.484;11.238;2023-12-20T13:22:14;408.33;;;161.85;;
63906;SDS011;50075;49.484;11.238;2023-12-20T13:24:40;376.80;;;146.75;;
63906;SDS011;50075;49.484;11.238;2023-12-20T13:27:05;395.58;;;150.27;;
63906;SDS011;50075;49.484;11.238;2023-12-20T13:29:31;397.38;;;154.95;;
63906;SDS011;50075;49.484;11.238;2023-12-20T13:31:56;482.27;;;157.45;;
63906;SDS011;50075;49.484;11.238;2023-12-20T13:34:22;404.15;;;158.63;;
63906;SDS011;50075;49.484;11.238;2023-12-20T13:36:48;372.42;;;155.07;;
63906;SDS011;50075;49.484;11.238;2023-12-20T13:39:15;440.40;;;152.70;;
63906;SDS011;50075;49.484;11.238;2023-12-20T13:41:41;368.75;;;158.27;;
63906;SDS011;50075;49.484;11.238;2023-12-20T13:44:07;382.98;;;163.13;;
63906;SDS011;50075;49.484;11.238;2023-12-20T13:46:32;364.67;;;165.55;;